Time,TemperatureF,DewpointF,PressureIn,WindDirection,WindDirectionDegrees,WindSpeedMPH,WindSpeedGustMPH,Humidity,HourlyPrecipIn,Conditions,Clouds,dailyrainin,SoftwareType,DateUTC
2013-05-05 00:02:00,38.0,36.0,30.03,West,269,0.0,0.0,94,0.00,,,0.19,,2013-05-05 05:02:00,
2013-05-05 00:12:00,38.0,36.0,30.03,West,269,0.0,0.0,94,0.00,,,0.19,,2013-05-05 05:12:00,
2013-05-05 00:21:00,37.0,35.0,30.03,West,269,0.0,0.0,94,0.00,,,0.19,,2013-05-05 05:21:00,
2013-05-05 00:31:00,37.0,36.0,30.04,West,269,0.0,0.0,95,0.00,,,0.19,,2013-05-05 05:31:00,
2013-05-05 00:42:00,37.0,36.0,30.04,West,269,0.0,0.0,95,0.00,,,0.19,,2013-05-05 05:42:00,
2013-05-05 00:52:00,36.0,35.0,30.04,West,269,0.0,0.0,95,0.00,,,0.19,,2013-05-05 05:52:00,
2013-05-05 01:01:00,36.0,35.0,30.04,West,269,0.0,0.0,96,0.00,,,0.19,,2013-05-05 06:01:00,
2013-05-05 01:12:00,36.0,35.0,30.04,West,269,0.0,0.0,96,0.00,,,0.19,,2013-05-05 06:12:00,
2013-05-05 01:21:00,36.0,35.0,30.04,West,269,0.0,0.0,97,0.00,,,0.19,,2013-05-05 06:21:00,
2013-05-05 01:32:00,37.0,36.0,30.04,West,269,0.0,0.0,97,0.00,,,0.19,,2013-05-05 06:32:00,
2013-05-05 01:42:00,37.0,36.0,30.04,West,269,0.0,0.0,97,0.00,,,0.19,,2013-05-05 06:42:00,
2013-05-05 01:52:00,38.0,37.0,30.04,West,269,0.0,0.0,97,0.00,,,0.19,,2013-05-05 06:52:00,
2013-05-05 02:01:00,38.0,37.0,30.03,West,269,0.0,0.0,97,0.00,,,0.19,,2013-05-05 07:01:00,
2013-05-05 02:11:00,38.0,37.0,30.03,West,269,0.0,0.0,97,0.00,,,0.19,,2013-05-05 07:11:00,
2013-05-05 02:21:00,38.0,37.0,30.03,West,269,0.0,0.0,96,0.00,,,0.19,,2013-05-05 07:21:00,
2013-05-05 02:32:00,38.0,37.0,30.03,West,269,0.0,0.0,96,0.00,,,0.19,,2013-05-05 07:32:00,
2013-05-05 02:42:00,38.0,37.0,30.03,West,269,0.0,0.0,96,0.00,,,0.19,,2013-05-05 07:42:00,
2013-05-05 02:52:00,37.0,36.0,30.03,West,269,0.0,0.0,95,0.00,,,0.19,,2013-05-05 07:52:00,
2013-05-05 03:02:00,37.0,36.0,30.03,West,269,0.0,0.0,95,0.00,,,0.19,,2013-05-05 08:02:00,
2013-05-05 03:11:00,37.0,36.0,30.03,West,269,0.0,0.0,95,0.00,,,0.19,,2013-05-05 08:11:00,
2013-05-05 03:21:00,37.0,36.0,30.03,West,269,0.0,0.0,96,0.00,,,0.18,,2013-05-05 08:21:00,
2013-05-05 03:31:00,37.0,36.0,30.03,West,269,0.0,0.0,97,0.00,,,0.18,,2013-05-05 08:31:00,
2013-05-05 03:42:00,37.0,36.0,30.03,West,269,0.0,0.0,97,0.00,,,0.18,,2013-05-05 08:42:00,
2013-05-05 03:53:00,37.0,36.0,30.03,West,269,0.0,0.0,97,0.00,,,0.18,,2013-05-05 08:53:00,
2013-05-05 04:01:00,38.0,37.0,30.03,West,269,0.0,0.0,97,0.00,,,0.18,,2013-05-05 09:01:00,
2013-05-05 04:11:00,38.0,37.0,30.03,West,269,0.0,0.0,97,0.00,,,0.18,,2013-05-05 09:11:00,
2013-05-05 04:21:00,38.0,37.0,30.04,West,269,0.0,0.0,97,0.00,,,0.17,,2013-05-05 09:21:00,
2013-05-05 04:32:00,38.0,37.0,30.04,West,269,0.0,0.0,97,0.00,,,0.17,,2013-05-05 09:32:00,
2013-05-05 04:42:00,38.0,37.0,30.04,West,269,0.0,0.0,97,0.00,,,0.17,,2013-05-05 09:42:00,
2013-05-05 04:52:00,38.0,37.0,30.04,West,269,0.0,0.0,97,0.00,,,0.17,,2013-05-05 09:52:00,
2013-05-05 05:02:00,38.0,37.0,30.05,West,269,0.0,0.0,97,0.00,,,0.17,,2013-05-05 10:02:00,
2013-05-05 05:12:00,38.0,37.0,30.05,West,269,0.0,0.0,97,0.00,,,0.17,,2013-05-05 10:12:00,
2013-05-05 05:22:00,39.0,38.0,30.05,West,269,0.0,1.0,96,0.00,,,0.15,,2013-05-05 10:22:00,
2013-05-05 05:32:00,38.0,37.0,30.05,West,269,0.0,0.0,95,0.00,,,0.15,,2013-05-05 10:32:00,
2013-05-05 05:42:00,38.0,37.0,30.05,West,269,0.0,0.0,95,0.00,,,0.15,,2013-05-05 10:42:00,
2013-05-05 05:53:00,38.0,37.0,30.06,West,269,0.0,0.0,96,0.00,,,0.15,,2013-05-05 10:53:00,
2013-05-05 06:01:00,37.0,36.0,30.06,West,269,0.0,0.0,95,0.00,,,0.15,,2013-05-05 11:01:00,
2013-05-05 06:12:00,37.0,36.0,30.06,West,269,0.0,0.0,95,0.00,,,0.15,,2013-05-05 11:12:00,
2013-05-05 06:22:00,37.0,36.0,30.07,West,269,0.0,0.0,96,0.01,,,0.13,,2013-05-05 11:22:00,
2013-05-05 06:32:00,36.0,35.0,30.07,West,269,0.0,0.0,95,0.01,,,0.13,,2013-05-05 11:32:00,
2013-05-05 06:42:00,36.0,35.0,30.07,West,269,0.0,0.0,95,0.01,,,0.13,,2013-05-05 11:42:00,
2013-05-05 06:52:00,36.0,35.0,30.07,West,269,0.0,0.0,96,0.01,,,0.13,,2013-05-05 11:52:00,
2013-05-05 07:02:00,35.0,34.0,30.07,West,269,0.0,0.0,96,0.01,,,0.13,,2013-05-05 12:02:00,
2013-05-05 07:11:00,35.0,34.0,30.07,West,269,0.0,0.0,96,0.01,,,0.13,,2013-05-05 12:11:00,
2013-05-05 07:21:00,35.0,34.0,30.08,West,269,0.0,0.0,96,0.00,,,0.10,,2013-05-05 12:21:00,
2013-05-05 07:32:00,35.0,34.0,30.08,West,269,0.0,0.0,97,0.00,,,0.10,,2013-05-05 12:32:00,
2013-05-05 07:42:00,35.0,34.0,30.08,West,269,0.0,0.0,97,0.00,,,0.10,,2013-05-05 12:42:00,
2013-05-05 07:52:00,36.0,35.0,30.09,West,269,0.0,0.0,98,0.00,,,0.10,,2013-05-05 12:52:00,
2013-05-05 08:01:00,38.0,37.0,30.09,West,269,0.0,2.0,98,0.00,,,0.10,,2013-05-05 13:01:00,
2013-05-05 08:11:00,38.0,37.0,30.09,West,269,0.0,2.0,98,0.00,,,0.10,,2013-05-05 13:11:00,
2013-05-05 08:21:00,39.0,38.0,30.10,West,269,0.0,2.0,96,0.00,,,0.06,,2013-05-05 13:21:00,
2013-05-05 08:32:00,41.0,39.0,30.10,West,269,0.0,2.0,94,0.00,,,0.06,,2013-05-05 13:32:00,
2013-05-05 08:42:00,41.0,39.0,30.10,West,269,0.0,2.0,94,0.00,,,0.06,,2013-05-05 13:42:00,
2013-05-05 08:52:00,43.0,40.0,30.11,West,260,0.0,4.0,90,0.00,,,0.06,,2013-05-05 13:52:00,
2013-05-05 09:02:00,43.0,40.0,30.11,West,272,0.0,5.0,88,0.00,,,0.06,,2013-05-05 14:02:00,
2013-05-05 09:11:00,43.0,40.0,30.11,West,272,0.0,5.0,88,0.00,,,0.06,,2013-05-05 14:11:00,
2013-05-05 09:21:00,44.0,40.0,30.11,NW,313,0.0,7.0,86,0.00,,,0.03,,2013-05-05 14:21:00,
2013-05-05 09:31:00,46.0,42.0,30.11,NW,317,0.0,2.0,86,0.00,,,0.03,,2013-05-05 14:31:00,
2013-05-05 09:42:00,46.0,42.0,30.11,NW,317,0.0,2.0,86,0.00,,,0.03,,2013-05-05 14:42:00,
2013-05-05 09:52:00,48.0,42.0,30.11,WSW,248,0.0,6.0,79,0.00,,,0.03,,2013-05-05 14:52:00,
2013-05-05 10:02:00,48.0,42.0,30.11,West,275,1.0,5.0,79,0.00,,,0.03,,2013-05-05 15:02:00,
2013-05-05 10:11:00,48.0,42.0,30.11,West,275,1.0,5.0,79,0.00,,,0.03,,2013-05-05 15:11:00,
2013-05-05 10:21:00,50.0,43.0,30.10,West,277,2.0,6.0,76,0.00,,,0.01,,2013-05-05 15:21:00,
2013-05-05 10:33:00,49.0,41.0,30.11,West,263,3.0,7.0,74,0.00,,,0.01,,2013-05-05 15:33:00,
2013-05-05 10:43:00,49.0,41.0,30.11,West,263,3.0,7.0,74,0.00,,,0.01,,2013-05-05 15:43:00,
2013-05-05 10:53:00,49.0,42.0,30.11,West,271,1.0,6.0,76,0.00,,,0.01,,2013-05-05 15:53:00,
2013-05-05 11:03:00,52.0,44.0,30.11,WNW,294,1.0,6.0,75,0.00,,,0.01,,2013-05-05 16:03:00,
2013-05-05 11:12:00,52.0,44.0,30.11,WNW,294,1.0,6.0,75,0.00,,,0.01,,2013-05-05 16:12:00,
2013-05-05 11:23:00,53.0,43.0,30.11,West,261,0.0,6.0,69,0.00,,,0.01,,2013-05-05 16:23:00,
2013-05-05 11:32:00,51.0,42.0,30.12,WNW,284,0.0,5.0,72,0.00,,,0.01,,2013-05-05 16:32:00,
2013-05-05 11:42:00,51.0,42.0,30.12,WNW,284,0.0,5.0,72,0.00,,,0.01,,2013-05-05 16:42:00,
2013-05-05 11:53:00,51.0,42.0,30.12,SW,232,1.0,6.0,72,0.00,,,0.01,,2013-05-05 16:53:00,
2013-05-05 12:02:00,54.0,44.0,30.11,WSW,257,3.0,7.0,69,0.00,,,0.01,,2013-05-05 17:02:00,
2013-05-05 12:12:00,54.0,44.0,30.11,WSW,257,3.0,7.0,69,0.00,,,0.01,,2013-05-05 17:12:00,
2013-05-05 12:23:00,54.0,44.0,30.11,West,276,2.0,8.0,68,0.00,,,0.01,,2013-05-05 17:23:00,
2013-05-05 12:32:00,56.0,44.0,30.10,West,275,1.0,5.0,65,0.00,,,0.01,,2013-05-05 17:32:00,
2013-05-05 12:42:00,56.0,44.0,30.10,West,275,1.0,5.0,65,0.00,,,0.01,,2013-05-05 17:42:00,
2013-05-05 12:52:00,58.0,45.0,30.09,West,272,2.0,6.0,61,0.00,,,0.01,,2013-05-05 17:52:00,
2013-05-05 13:01:00,56.0,44.0,30.09,West,280,3.0,9.0,63,0.00,,,0.01,,2013-05-05 18:01:00,
2013-05-05 13:12:00,56.0,44.0,30.09,West,280,3.0,9.0,63,0.00,,,0.01,,2013-05-05 18:12:00,
2013-05-05 13:21:00,57.0,45.0,30.09,ENE,65,0.0,4.0,65,0.00,,,0.01,,2013-05-05 18:21:00,
2013-05-05 13:32:00,58.0,44.0,30.08,West,271,3.0,8.0,60,0.00,,,0.01,,2013-05-05 18:32:00,
2013-05-05 13:42:00,58.0,44.0,30.08,West,271,3.0,8.0,60,0.00,,,0.01,,2013-05-05 18:42:00,
2013-05-05 13:52:00,59.0,47.0,30.07,West,279,0.0,6.0,64,0.00,,,0.01,,2013-05-05 18:52:00,
2013-05-05 14:01:00,60.0,47.0,30.07,SW,223,1.0,5.0,62,0.00,,,0.01,,2013-05-05 19:01:00,
2013-05-05 14:11:00,60.0,47.0,30.07,SW,223,1.0,5.0,62,0.00,,,0.01,,2013-05-05 19:11:00,
2013-05-05 14:21:00,58.0,45.0,30.07,West,271,2.0,10.0,63,0.00,,,0.01,,2013-05-05 19:21:00,
2013-05-05 14:32:00,59.0,47.0,30.07,West,269,3.0,9.0,64,0.00,,,0.01,,2013-05-05 19:32:00,
2013-05-05 14:42:00,59.0,47.0,30.07,West,269,3.0,9.0,64,0.00,,,0.01,,2013-05-05 19:42:00,
2013-05-05 14:52:00,57.0,45.0,30.08,West,273,2.0,7.0,65,0.00,,,0.01,,2013-05-05 19:52:00,
2013-05-05 15:01:00,58.0,47.0,30.07,West,266,2.0,7.0,66,0.00,,,0.01,,2013-05-05 20:01:00,
2013-05-05 15:11:00,58.0,47.0,30.07,West,266,2.0,7.0,66,0.00,,,0.01,,2013-05-05 20:11:00,
2013-05-05 15:21:00,57.0,46.0,30.07,West,259,3.0,8.0,67,0.00,,,0.01,,2013-05-05 20:21:00,
2013-05-05 15:31:00,58.0,47.0,30.06,West,275,3.0,11.0,68,0.00,,,0.01,,2013-05-05 20:31:00,
2013-05-05 15:41:00,58.0,47.0,30.06,West,275,3.0,11.0,68,0.00,,,0.01,,2013-05-05 20:41:00,
2013-05-05 15:52:00,60.0,48.0,30.06,West,261,7.0,10.0,65,0.00,,,0.01,,2013-05-05 20:52:00,
2013-05-05 16:02:00,59.0,47.0,30.06,NW,309,4.0,9.0,65,0.00,,,0.01,,2013-05-05 21:02:00,
2013-05-05 16:11:00,59.0,47.0,30.06,NW,309,4.0,9.0,65,0.00,,,0.01,,2013-05-05 21:11:00,
2013-05-05 16:21:00,58.0,47.0,30.05,WNW,290,3.0,7.0,66,0.00,,,0.01,,2013-05-05 21:21:00,
2013-05-05 16:33:00,59.0,48.0,30.05,NW,317,4.0,9.0,67,0.00,,,0.01,,2013-05-05 21:33:00,
2013-05-05 16:42:00,59.0,48.0,30.05,NW,317,4.0,9.0,67,0.00,,,0.01,,2013-05-05 21:42:00,
2013-05-05 16:53:00,58.0,47.0,30.05,West,278,1.0,7.0,68,0.00,,,0.01,,2013-05-05 21:53:00,
2013-05-05 17:02:00,56.0,47.0,30.05,West,261,1.0,7.0,71,0.00,,,0.01,,2013-05-05 22:02:00,
2013-05-05 17:12:00,56.0,47.0,30.05,West,261,1.0,7.0,71,0.00,,,0.01,,2013-05-05 22:12:00,
2013-05-05 17:22:00,55.0,47.0,30.05,West,277,2.0,6.0,74,0.00,,,0.01,,2013-05-05 22:22:00,
2013-05-05 17:33:00,56.0,49.0,30.05,West,267,1.0,8.0,76,0.00,,,0.01,,2013-05-05 22:33:00,
2013-05-05 17:42:00,56.0,49.0,30.05,West,267,1.0,8.0,76,0.00,,,0.01,,2013-05-05 22:42:00,
2013-05-05 17:52:00,56.0,48.0,30.05,West,262,0.0,5.0,75,0.00,,,0.01,,2013-05-05 22:52:00,
2013-05-05 18:02:00,56.0,49.0,30.05,West,265,0.0,6.0,76,0.00,,,0.01,,2013-05-05 23:02:00,
2013-05-05 18:11:00,56.0,49.0,30.05,West,265,0.0,6.0,76,0.00,,,0.01,,2013-05-05 23:11:00,
2013-05-05 18:21:00,57.0,48.0,30.05,West,280,3.0,8.0,73,0.00,,,0.01,,2013-05-05 23:21:00,
2013-05-05 18:32:00,57.0,49.0,30.05,West,277,1.0,6.0,75,0.00,,,0.01,,2013-05-05 23:32:00,
2013-05-05 18:42:00,57.0,49.0,30.05,West,277,1.0,6.0,75,0.00,,,0.01,,2013-05-05 23:42:00,
2013-05-05 18:52:00,56.0,49.0,30.05,West,272,2.0,5.0,76,0.00,,,0.01,,2013-05-05 23:52:00,
2013-05-05 19:01:00,55.0,48.0,30.06,West,270,0.0,5.0,78,0.00,,,0.01,,2013-05-06 00:01:00,
2013-05-05 19:11:00,55.0,48.0,30.06,West,270,0.0,5.0,78,0.00,,,0.01,,2013-05-06 00:11:00,
2013-05-05 19:21:00,55.0,48.0,30.05,West,264,0.0,6.0,78,0.00,,,0.01,,2013-05-06 00:21:00,
2013-05-05 19:31:00,55.0,49.0,30.05,West,264,0.0,2.0,79,0.00,,,0.01,,2013-05-06 00:31:00,
2013-05-05 19:41:00,55.0,49.0,30.05,West,264,0.0,2.0,79,0.00,,,0.01,,2013-05-06 00:41:00,
2013-05-05 19:52:00,54.0,49.0,30.06,West,270,0.0,4.0,82,0.00,,,0.01,,2013-05-06 00:52:00,
2013-05-05 20:01:00,54.0,49.0,30.06,West,260,0.0,2.0,82,0.00,,,0.01,,2013-05-06 01:01:00,
2013-05-05 20:11:00,54.0,49.0,30.06,West,260,0.0,2.0,82,0.00,,,0.01,,2013-05-06 01:11:00,
2013-05-05 20:21:00,54.0,49.0,30.05,West,261,0.0,2.0,84,0.00,,,0.01,,2013-05-06 01:21:00,
2013-05-05 20:31:00,53.0,48.0,30.05,West,266,0.0,2.0,83,0.00,,,0.01,,2013-05-06 01:31:00,
2013-05-05 20:41:00,53.0,48.0,30.05,West,266,0.0,2.0,83,0.00,,,0.01,,2013-05-06 01:41:00,
2013-05-05 20:52:00,53.0,48.0,30.04,West,269,0.0,2.0,84,0.00,,,0.01,,2013-05-06 01:52:00,
2013-05-05 21:01:00,52.0,48.0,30.05,West,271,0.0,2.0,85,0.00,,,0.01,,2013-05-06 02:01:00,
2013-05-05 21:12:00,52.0,48.0,30.05,West,271,0.0,2.0,85,0.00,,,0.01,,2013-05-06 02:12:00,
2013-05-05 21:21:00,52.0,48.0,30.04,West,275,0.0,4.0,86,0.00,,,0.01,,2013-05-06 02:21:00,
2013-05-05 21:32:00,51.0,47.0,30.06,West,275,0.0,2.0,87,0.00,,,0.01,,2013-05-06 02:32:00,
2013-05-05 21:42:00,51.0,47.0,30.06,West,275,0.0,2.0,87,0.00,,,0.01,,2013-05-06 02:42:00,
2013-05-05 21:52:00,51.0,48.0,30.06,SW,236,0.0,1.0,88,0.00,,,0.01,,2013-05-06 02:52:00,
2013-05-05 22:02:00,52.0,49.0,30.07,SW,236,0.0,1.0,88,0.00,,,0.01,,2013-05-06 03:02:00,
2013-05-05 22:11:00,52.0,49.0,30.07,SW,236,0.0,1.0,88,0.00,,,0.01,,2013-05-06 03:11:00,
2013-05-05 22:22:00,52.0,48.0,30.06,West,267,0.0,4.0,87,0.00,,,0.01,,2013-05-06 03:22:00,
2013-05-05 22:33:00,51.0,48.0,30.07,West,267,0.0,0.0,88,0.00,,,0.01,,2013-05-06 03:33:00,
2013-05-05 22:42:00,51.0,48.0,30.07,West,267,0.0,0.0,88,0.00,,,0.01,,2013-05-06 03:42:00,
2013-05-05 22:52:00,51.0,48.0,30.07,West,267,0.0,0.0,89,0.00,,,0.01,,2013-05-06 03:52:00,
2013-05-05 23:02:00,51.0,48.0,30.07,West,267,0.0,2.0,88,0.00,,,0.01,,2013-05-06 04:02:00,
2013-05-05 23:12:00,51.0,48.0,30.07,West,267,0.0,2.0,88,0.00,,,0.01,,2013-05-06 04:12:00,
2013-05-05 23:23:00,51.0,47.0,30.07,West,272,0.0,5.0,87,0.00,,,0.01,,2013-05-06 04:23:00,
2013-05-05 23:32:00,51.0,47.0,30.07,West,272,0.0,5.0,87,0.00,,,0.01,,2013-05-06 04:32:00,
2013-05-05 23:42:00,51.0,47.0,30.07,West,272,0.0,5.0,87,0.00,,,0.01,,2013-05-06 04:42:00,
2013-05-05 23:53:00,51.0,47.0,30.07,West,264,0.0,2.0,87,0.00,,,0.01,,2013-05-06 04:53:00,